TimeCDT,TemperatureF,Dew PointF,Humidity,Sea Level PressureIn,VisibilityMPH,Wind Direction,Wind SpeedMPH,Gust SpeedMPH,PrecipitationIn,Events,Conditions,WindDirDegrees,DateUTC
12:54 AM,66.0,57.0,73,29.98,10.0,SSE,10.4,-,N/A,,Clear,160,2013-09-27 05:54:00
1:54 AM,64.0,55.9,75,29.99,9.0,SSE,13.8,-,N/A,,Clear,160,2013-09-27 06:54:00
2:54 AM,64.0,55.0,73,29.99,9.0,SSE,12.7,-,N/A,,Clear,150,2013-09-27 07:54:00
3:54 AM,62.1,54.0,75,29.98,9.0,SSE,12.7,-,N/A,,Clear,150,2013-09-27 08:54:00
4:54 AM,61.0,53.1,75,29.98,9.0,SSE,12.7,-,N/A,,Clear,150,2013-09-27 09:54:00
5:54 AM,61.0,54.0,78,29.99,9.0,SSE,11.5,-,N/A,,Clear,150,2013-09-27 10:54:00
6:54 AM,63.0,54.0,72,29.99,9.0,SSE,16.1,-,N/A,,Clear,150,2013-09-27 11:54:00
7:54 AM,64.9,55.0,70,29.99,8.0,SSE,15.0,24.2,N/A,,Clear,160,2013-09-27 12:54:00
8:54 AM,66.9,55.9,68,30.01,8.0,South,15.0,23.0,N/A,,Clear,170,2013-09-27 13:54:00
9:54 AM,70.0,57.9,65,30.01,9.0,South,16.1,23.0,N/A,,Mostly Cloudy,170,2013-09-27 14:54:00
10:54 AM,73.0,60.1,64,29.99,10.0,SSE,15.0,-,N/A,,Mostly Cloudy,160,2013-09-27 15:54:00
11:54 AM,79.0,61.0,54,29.97,10.0,South,18.4,26.5,N/A,,Partly Cloudy,170,2013-09-27 16:54:00
12:54 PM,81.0,61.0,50,29.94,10.0,SSE,19.6,31.1,N/A,,Clear,160,2013-09-27 17:54:00
1:54 PM,80.1,59.0,48,29.92,10.0,SSE,21.9,29.9,N/A,,Partly Cloudy,160,2013-09-27 18:54:00
2:54 PM,81.0,60.1,49,29.89,10.0,SSE,24.2,34.5,N/A,,Clear,160,2013-09-27 19:54:00
3:54 PM,82.0,61.0,49,29.88,10.0,SSE,28.8,36.8,N/A,,Clear,160,2013-09-27 20:54:00
4:54 PM,81.0,60.1,49,29.90,10.0,SSE,23.0,31.1,N/A,,Clear,160,2013-09-27 21:54:00
5:54 PM,79.0,59.0,50,29.91,10.0,SSE,18.4,27.6,N/A,,Clear,160,2013-09-27 22:54:00
6:54 PM,77.0,57.9,52,29.91,10.0,SSE,16.1,-,N/A,,Clear,160,2013-09-27 23:54:00
7:54 PM,73.0,57.9,59,29.91,10.0,SSE,13.8,-,N/A,,Clear,160,2013-09-28 00:54:00
8:54 PM,72.0,57.9,61,29.90,10.0,SSE,15.0,-,N/A,,Clear,160,2013-09-28 01:54:00
9:54 PM,70.0,55.9,61,29.90,10.0,SSE,16.1,-,N/A,,Clear,160,2013-09-28 02:54:00
10:54 PM,70.0,55.0,59,29.90,10.0,SSE,18.4,26.5,N/A,,Clear,160,2013-09-28 03:54:00
11:54 PM,68.0,54.0,61,29.89,10.0,SSE,17.3,25.3,N/A,,Clear,160,2013-09-28 04:54:00